CSCL Genoa — V2OH2 — position and weather

sailwx.info

Track history (hours):
 
Tides and Currents Weather Stations Pressure Air Temp Water Temp Dewpoint Dewpoint Depression Visibility Wind Speed Wind Dir Waves Ship Positions

CSCL Genoa

Last reported at 2015-May-01 08:32 UTC. Time now 2015-May-06 17:30 UTC.
Position S 29°53' E 031°01'.

Length 208 m; beam 32 m; draft 11.5 m.

Type: Ship. MMSI: 304528000.

Date/timePositionNaut miles runAvg speedWind from/ knotsBaromVisibWave heightAir tempDewpointWater temp
2015-May-01 08:32S 29°53' E 031°01'0 0.0
2015-May-01 07:32S 29°53' E 031°01'0 0.0
2015-May-01 06:26S 29°53' E 031°01'0 0.0
2015-May-01 05:32S 29°53' E 031°01'0 0.0
2015-May-01 04:32S 29°53' E 031°01'0 0.0
2015-May-01 01:20S 29°53' E 031°01'0 0.0
2015-May-01 00:32S 29°53' E 031°01'8 1.0
2015-Apr-30 16:14S 29°49' E 031°10'5 0.6
2015-Apr-30 08:33S 29°48' E 031°15'3 2.9
2015-Apr-30 07:33S 29°51' E 031°15'6 6.5
2015-Apr-30 06:33S 29°56' E 031°09'9 8.7
2015-Apr-30 05:33S 30°02' E 031°02'1010.2
2015-Apr-30 04:32S 30°11' E 030°57'30711.3
2015-Apr-29 01:16S 33°46' E 026°39'409 8.8
2015-Apr-27 02:33S 33°54' E 018°26'0 0.4
2015-Apr-27 01:27S 33°54' E 018°27'0 0.0
2015-Apr-27 00:33S 33°54' E 018°27'0 0.0
2015-Apr-26 23:33S 33°54' E 018°27'0 0.0
2015-Apr-26 22:33S 33°54' E 018°27'0 0.0
2015-Apr-26 21:30S 33°54' E 018°27'0 0.0
2015-Apr-26 20:33S 33°54' E 018°27'0 0.0
2015-Apr-26 19:30S 33°54' E 018°27'0 0.0
2015-Apr-26 18:33S 33°54' E 018°27'0 0.0
2015-Apr-26 17:33S 33°54' E 018°27'0 0.0
2015-Apr-26 16:33S 33°54' E 018°27'0 0.0
2015-Apr-26 15:33S 33°54' E 018°27'0 0.0
2015-Apr-26 14:33S 33°54' E 018°27'61215.7
2015-Apr-24 23:33S 24°29' E 013°57'1818.0
2015-Apr-24 22:33S 24°12' E 013°49'  
Track history (hours):
 
Tides and Currents Weather Stations Pressure Air Temp Water Temp Dewpoint Dewpoint Depression Visibility Wind Speed Wind Dir Waves Ship Positions

CSCL Genoa

Last reported at 2015-May-01 08:32 UTC. Time now 2015-May-06 17:30 UTC.
Position S 29°53' E 031°01'.

Length 208 m; beam 32 m; draft 11.5 m.

Type: Ship. MMSI: 304528000.

Date/timePositionNaut miles runAvg speedWind from/ knotsBaromVisibWave heightAir tempDewpointWater temp
2015-May-01 08:32S 29°53' E 031°01'0 0.0
2015-May-01 07:32S 29°53' E 031°01'0 0.0
2015-May-01 06:26S 29°53' E 031°01'0 0.0
2015-May-01 05:32S 29°53' E 031°01'0 0.0
2015-May-01 04:32S 29°53' E 031°01'0 0.0
2015-May-01 01:20S 29°53' E 031°01'0 0.0
2015-May-01 00:32S 29°53' E 031°01'8 1.0
2015-Apr-30 16:14S 29°49' E 031°10'5 0.6
2015-Apr-30 08:33S 29°48' E 031°15'3 2.9
2015-Apr-30 07:33S 29°51' E 031°15'6 6.5
2015-Apr-30 06:33S 29°56' E 031°09'9 8.7
2015-Apr-30 05:33S 30°02' E 031°02'1010.2
2015-Apr-30 04:32S 30°11' E 030°57'30711.3
2015-Apr-29 01:16S 33°46' E 026°39'409 8.8
2015-Apr-27 02:33S 33°54' E 018°26'0 0.4
2015-Apr-27 01:27S 33°54' E 018°27'0 0.0
2015-Apr-27 00:33S 33°54' E 018°27'0 0.0
2015-Apr-26 23:33S 33°54' E 018°27'0 0.0
2015-Apr-26 22:33S 33°54' E 018°27'0 0.0
2015-Apr-26 21:30S 33°54' E 018°27'0 0.0
2015-Apr-26 20:33S 33°54' E 018°27'0 0.0
2015-Apr-26 19:30S 33°54' E 018°27'0 0.0
2015-Apr-26 18:33S 33°54' E 018°27'0 0.0
2015-Apr-26 17:33S 33°54' E 018°27'0 0.0
2015-Apr-26 16:33S 33°54' E 018°27'0 0.0
2015-Apr-26 15:33S 33°54' E 018°27'0 0.0
2015-Apr-26 14:33S 33°54' E 018°27'61215.7
2015-Apr-24 23:33S 24°29' E 013°57'1818.0
2015-Apr-24 22:33S 24°12' E 013°49'  

Dump ship's entire track history